createdAt,value
2019-05-23T00:00:51.847Z,13.08
2019-05-23T00:01:52.271Z,13.03
2019-05-23T00:02:52.695Z,13.05
2019-05-23T00:03:53.160Z,13.08
2019-05-23T00:04:53.591Z,12.95
2019-05-23T00:05:54.131Z,12.91
2019-05-23T00:06:54.593Z,12.88
2019-05-23T00:07:55.138Z,12.80
2019-05-23T00:08:55.577Z,12.84
2019-05-23T00:09:56.068Z,12.78
2019-05-23T00:10:56.507Z,12.69
2019-05-23T00:11:57.006Z,12.66
2019-05-23T00:12:57.495Z,12.73
2019-05-23T00:13:58.974Z,12.66
2019-05-23T00:14:59.418Z,12.66
2019-05-23T00:15:59.942Z,12.51
2019-05-23T00:17:00.361Z,12.57
2019-05-23T00:18:00.835Z,12.57
2019-05-23T00:19:01.280Z,12.62
2019-05-23T00:20:01.772Z,12.48
2019-05-23T00:21:02.238Z,12.45
2019-05-23T00:22:02.717Z,12.54
2019-05-23T00:23:03.144Z,12.40
2019-05-23T00:24:03.661Z,12.53
2019-05-23T00:25:04.121Z,12.50
2019-05-23T00:26:04.613Z,12.50
2019-05-23T00:27:05.038Z,12.44
2019-05-23T00:28:05.521Z,12.44
2019-05-23T00:29:10.696Z,12.36
2019-05-23T00:30:11.369Z,12.33
2019-05-23T00:31:11.809Z,12.33
2019-05-23T00:32:12.303Z,12.26
2019-05-23T00:33:12.728Z,12.26
2019-05-23T00:34:13.251Z,12.33
2019-05-23T00:35:13.694Z,12.30
2019-05-23T00:36:15.232Z,12.15
2019-05-23T00:37:15.655Z,12.21
2019-05-23T00:38:16.132Z,12.26
2019-05-23T00:39:16.564Z,12.25
2019-05-23T00:40:18.093Z,12.20
2019-05-23T00:41:18.537Z,12.17
2019-05-23T00:42:21.078Z,12.17
2019-05-23T00:43:21.505Z,12.14
2019-05-23T00:44:28.740Z,12.15
2019-05-23T00:45:29.160Z,12.11
2019-05-23T00:46:29.730Z,12.12
2019-05-23T00:47:30.170Z,12.08
2019-05-23T00:48:30.743Z,12.08
2019-05-23T00:49:31.187Z,12.11
2019-05-23T00:50:31.715Z,12.07
2019-05-23T00:51:32.177Z,12.03
2019-05-23T00:52:32.721Z,12.08
2019-05-23T00:53:33.146Z,12.00
2019-05-23T00:54:33.654Z,11.99
2019-05-23T00:55:34.082Z,11.97
2019-05-23T00:56:34.632Z,12.02
2019-05-23T00:57:35.051Z,11.88
2019-05-23T00:58:35.659Z,11.96
2019-05-23T00:59:36.104Z,11.95
2019-05-23T01:00:36.667Z,11.93
2019-05-23T01:01:38.013Z,11.88
2019-05-23T01:02:38.623Z,11.77
2019-05-23T01:03:39.057Z,11.83
2019-05-23T01:04:40.592Z,11.81
2019-05-23T01:05:41.028Z,11.78
2019-05-23T01:06:41.748Z,11.77
2019-05-23T01:07:42.173Z,11.81
2019-05-23T01:08:42.754Z,11.81
2019-05-23T01:09:43.182Z,11.81
2019-05-23T01:10:43.692Z,11.81
2019-05-23T01:11:44.136Z,11.88
2019-05-23T01:12:44.628Z,11.91
2019-05-23T01:13:45.056Z,11.93
2019-05-23T01:14:46.607Z,11.85
2019-05-23T01:15:47.062Z,11.78
2019-05-23T01:16:47.657Z,11.77
2019-05-23T01:17:48.147Z,11.76
2019-05-23T01:18:48.662Z,11.76
2019-05-23T01:19:49.084Z,11.78
2019-05-23T01:20:49.599Z,11.70
2019-05-23T01:21:50.307Z,11.65
2019-05-23T01:22:52.891Z,11.70
2019-05-23T01:23:53.310Z,11.65
2019-05-23T01:25:02.632Z,11.65
2019-05-23T01:26:03.067Z,11.58
2019-05-23T01:27:17.614Z,11.56
2019-05-23T01:28:18.047Z,11.60
2019-05-23T01:29:26.202Z,11.58
2019-05-23T01:30:26.628Z,11.48
2019-05-23T01:31:27.130Z,11.45
2019-05-23T01:32:27.575Z,11.48
2019-05-23T01:33:28.065Z,11.45
2019-05-23T01:34:28.485Z,11.45
2019-05-23T01:35:30.025Z,11.38
2019-05-23T01:36:30.479Z,11.37
2019-05-23T01:37:30.995Z,11.38
2019-05-23T01:38:31.428Z,11.34
2019-05-23T01:39:32.919Z,11.30
2019-05-23T01:40:33.342Z,11.25
2019-05-23T01:41:33.853Z,11.38
2019-05-23T01:42:34.290Z,11.35
2019-05-23T01:43:34.789Z,11.25
2019-05-23T01:44:35.214Z,11.31
2019-05-23T01:45:35.732Z,11.31
2019-05-23T01:46:36.156Z,11.34
2019-05-23T01:47:36.681Z,11.33
2019-05-23T01:48:37.116Z,11.23
2019-05-23T01:49:39.618Z,11.19
2019-05-23T01:50:40.042Z,11.18
2019-05-23T01:51:40.555Z,11.18
2019-05-23T01:52:41.010Z,11.25
2019-05-23T01:53:43.538Z,11.25
2019-05-23T01:54:43.965Z,11.18
2019-05-23T01:55:51.127Z,11.16
2019-05-23T01:56:51.563Z,11.10
2019-05-23T01:57:52.109Z,11.15
2019-05-23T01:58:52.552Z,11.08
2019-05-23T02:00:08.349Z,11.05
2019-05-23T02:00:59.511Z,11.05
2019-05-23T02:02:06.637Z,11.12
2019-05-23T02:03:07.115Z,11.08
2019-05-23T02:04:07.671Z,10.95
2019-05-23T02:05:08.093Z,10.97
2019-05-23T02:06:08.625Z,10.97
2019-05-23T02:07:09.074Z,11.01
2019-05-23T02:08:09.578Z,11.02
2019-05-23T02:09:10.005Z,10.98
2019-05-23T02:12:47.722Z,10.97
2019-05-23T02:16:00.540Z,10.86
2019-05-23T02:17:01.239Z,10.89
2019-05-23T02:22:21.880Z,10.83
2019-05-23T02:23:22.347Z,10.84
2019-05-23T02:26:39.468Z,10.72
2019-05-23T02:27:39.898Z,10.72
2019-05-23T02:31:31.051Z,10.65
2019-05-23T02:32:31.487Z,10.69
2019-05-23T02:42:07.174Z,10.61
2019-05-23T02:43:07.783Z,10.48
2019-05-23T02:44:08.254Z,10.57
2019-05-23T02:45:08.676Z,10.55
2019-05-23T02:46:09.109Z,10.48
2019-05-23T02:47:09.530Z,10.43
2019-05-23T02:48:09.954Z,10.41
2019-05-23T02:49:10.395Z,10.55
2019-05-23T02:50:10.822Z,10.39
2019-05-23T02:51:11.263Z,10.45
2019-05-23T02:52:11.694Z,10.41
2019-05-23T02:53:12.117Z,10.36
2019-05-23T02:54:12.567Z,10.28
2019-05-23T02:55:13.024Z,10.45
2019-05-23T02:56:13.473Z,10.36
2019-05-23T02:57:13.898Z,10.45
2019-05-23T02:58:14.344Z,10.34
2019-05-23T02:59:14.795Z,10.41
2019-05-23T03:00:15.227Z,10.28
2019-05-23T03:01:15.657Z,10.42
2019-05-23T03:02:16.076Z,10.42
2019-05-23T03:03:16.503Z,10.41
2019-05-23T03:04:16.963Z,10.41
2019-05-23T03:05:17.386Z,10.39
2019-05-23T03:06:17.828Z,10.39
2019-05-23T03:07:18.270Z,10.41
2019-05-23T03:08:18.705Z,10.38
2019-05-23T03:09:19.229Z,10.38
2019-05-23T03:10:19.660Z,10.33
2019-05-23T03:11:20.106Z,10.25
2019-05-23T03:12:24.767Z,10.30
2019-05-23T03:13:25.633Z,10.30
2019-05-23T03:14:26.093Z,10.34
2019-05-23T03:15:26.529Z,10.24
2019-05-23T03:16:26.955Z,10.31
2019-05-23T03:17:27.586Z,10.24
2019-05-23T03:18:28.007Z,10.15
2019-05-23T03:19:28.461Z,10.21
2019-05-23T03:20:28.897Z,10.17
2019-05-23T03:21:30.472Z,10.12
2019-05-23T03:22:30.957Z,10.17
2019-05-23T03:23:31.415Z,10.21
2019-05-23T03:24:31.876Z,10.10
2019-05-23T03:25:32.309Z,10.18
2019-05-23T03:26:32.747Z,10.20
2019-05-23T03:27:33.190Z,10.05
2019-05-23T03:28:33.645Z,10.12
2019-05-23T03:29:34.252Z,10.07
2019-05-23T03:30:34.713Z,10.10
2019-05-23T03:31:35.154Z,10.10
2019-05-23T03:32:38.799Z,10.09
2019-05-23T03:33:39.934Z,10.06
2019-05-23T03:34:40.405Z,10.05
2019-05-23T03:35:42.350Z,10.09
2019-05-23T03:36:42.779Z,10.18
2019-05-23T03:37:43.199Z,10.10
2019-05-23T03:38:43.653Z,10.15
2019-05-23T03:39:44.155Z,10.13
2019-05-23T03:40:44.577Z,10.03
2019-05-23T03:41:45.009Z,10.15
2019-05-23T03:42:45.439Z,10.15
2019-05-23T03:43:45.997Z,10.10
2019-05-23T03:44:46.452Z,10.10
2019-05-23T03:45:46.898Z,10.10
2019-05-23T03:46:47.447Z,10.06
2019-05-23T03:47:47.874Z,10.10
2019-05-23T03:48:48.315Z,10.07
2019-05-23T03:49:49.037Z,10.20
2019-05-23T03:50:49.467Z,10.09
2019-05-23T03:51:49.893Z,10.10
2019-05-23T03:52:50.323Z,10.07
2019-05-23T03:53:50.761Z,10.09
2019-05-23T03:54:51.236Z,10.21
2019-05-23T03:55:51.669Z,10.10
2019-05-23T03:56:52.104Z,10.21
2019-05-23T03:57:52.543Z,10.18
2019-05-23T03:58:53.075Z,10.17
2019-05-23T03:59:53.541Z,10.17
2019-05-23T04:00:54.007Z,10.17
2019-05-23T04:01:54.456Z,10.12
2019-05-23T04:02:54.903Z,10.25
2019-05-23T04:03:57.369Z,10.25
2019-05-23T04:04:57.840Z,10.25
2019-05-23T04:05:58.267Z,10.27
2019-05-23T04:06:58.719Z,10.25
2019-05-23T04:07:59.151Z,10.34
2019-05-23T04:08:59.685Z,10.23
2019-05-23T04:10:00.169Z,10.34
2019-05-23T04:11:00.610Z,10.39
2019-05-23T04:12:01.059Z,10.31
2019-05-23T04:13:01.482Z,10.33
2019-05-23T04:14:01.979Z,10.38
2019-05-23T04:15:02.438Z,10.41
2019-05-23T04:16:02.887Z,10.34
2019-05-23T04:17:03.321Z,10.36
2019-05-23T04:18:03.760Z,10.38
2019-05-23T04:19:04.188Z,10.27
2019-05-23T04:20:04.654Z,10.33
2019-05-23T04:21:05.086Z,10.39
2019-05-23T04:22:05.527Z,10.42
2019-05-23T04:23:05.968Z,10.42
2019-05-23T04:24:06.392Z,10.42
2019-05-23T04:25:06.856Z,10.42
2019-05-23T04:26:07.303Z,10.59
2019-05-23T04:27:07.732Z,10.55
2019-05-23T04:28:08.165Z,10.53
2019-05-23T04:29:08.599Z,10.55
2019-05-23T04:30:09.064Z,10.55
2019-05-23T04:31:12.911Z,10.58
2019-05-23T04:32:13.884Z,10.55
2019-05-23T04:33:14.392Z,10.59
2019-05-23T04:34:14.852Z,10.59
2019-05-23T04:35:15.347Z,10.64
2019-05-23T04:36:15.793Z,10.61
2019-05-23T04:37:16.250Z,10.61
2019-05-23T04:38:16.675Z,10.62
2019-05-23T04:39:17.094Z,10.76
2019-05-23T04:40:17.563Z,10.67
2019-05-23T04:41:18.133Z,10.69
2019-05-23T04:42:18.567Z,10.71
2019-05-23T04:43:19.104Z,10.72
2019-05-23T04:44:19.537Z,10.77
2019-05-23T04:45:20.091Z,10.76
2019-05-23T04:46:20.515Z,10.82
2019-05-23T04:47:20.952Z,10.72
2019-05-23T04:48:21.390Z,10.77
2019-05-23T04:49:21.829Z,10.92
2019-05-23T04:50:22.291Z,10.80
2019-05-23T04:51:22.716Z,10.86
2019-05-23T04:52:23.142Z,10.77
2019-05-23T04:53:23.575Z,10.92
2019-05-23T04:54:23.998Z,10.86
2019-05-23T04:55:24.485Z,11.00
2019-05-23T04:56:24.911Z,10.95
2019-05-23T04:57:25.337Z,10.95
2019-05-23T04:58:25.753Z,10.92
2019-05-23T04:59:26.196Z,10.94
2019-05-23T05:00:26.699Z,11.02
2019-05-23T05:01:27.139Z,11.02
2019-05-23T05:02:27.562Z,11.01
2019-05-23T05:03:27.993Z,11.08
2019-05-23T05:04:28.428Z,11.05
2019-05-23T05:05:28.891Z,11.16
2019-05-23T05:06:29.316Z,11.19
2019-05-23T05:07:29.751Z,11.20
2019-05-23T05:08:30.178Z,11.16
2019-05-23T05:09:30.806Z,11.20
2019-05-23T05:10:32.361Z,11.18
2019-05-23T05:11:32.894Z,11.27
2019-05-23T05:12:33.320Z,11.23
2019-05-23T05:13:33.778Z,11.23
2019-05-23T05:14:34.228Z,11.26
2019-05-23T05:15:34.686Z,11.31
2019-05-23T05:16:35.114Z,11.31
2019-05-23T05:17:35.541Z,11.34
2019-05-23T05:18:35.986Z,11.41
2019-05-23T05:19:36.417Z,11.34
2019-05-23T05:20:36.874Z,11.35
2019-05-23T05:21:37.353Z,11.43
2019-05-23T05:22:37.777Z,11.48
2019-05-23T05:26:33.197Z,11.52
2019-05-23T05:29:50.294Z,11.60
2019-05-23T05:31:27.161Z,11.60
2019-05-23T05:32:43.465Z,11.59
2019-05-23T05:34:59.076Z,11.65
2019-05-23T05:39:01.620Z,11.83
2019-05-23T05:40:04.145Z,11.83
2019-05-23T05:41:04.602Z,11.80
2019-05-23T05:47:49.559Z,12.05
2019-05-23T05:48:50.039Z,12.12
2019-05-23T05:49:50.561Z,12.10
2019-05-23T05:50:51.011Z,12.17
2019-05-23T05:51:51.492Z,12.15
2019-05-23T05:52:51.920Z,12.20
2019-05-23T05:53:52.349Z,12.28
2019-05-23T05:54:52.845Z,12.23
2019-05-23T05:55:54.312Z,12.25
2019-05-23T05:56:54.841Z,12.35
2019-05-23T05:57:56.383Z,12.39
2019-05-23T05:58:56.841Z,12.39
2019-05-23T05:59:57.309Z,12.36
2019-05-23T06:00:57.742Z,12.39
2019-05-23T06:01:58.280Z,12.53
2019-05-23T06:03:04.362Z,12.55
2019-05-23T06:04:05.222Z,12.54
2019-05-23T06:05:05.653Z,12.61
2019-05-23T06:06:06.156Z,12.55
2019-05-23T06:07:06.621Z,12.65
2019-05-23T06:08:07.083Z,12.65
2019-05-23T06:09:07.516Z,12.63
2019-05-23T06:10:08.014Z,12.75
2019-05-23T06:11:08.437Z,12.76
2019-05-23T06:12:08.986Z,12.84
2019-05-23T06:13:09.419Z,12.80
2019-05-23T06:14:09.884Z,12.84
2019-05-23T06:15:10.314Z,12.90
2019-05-23T06:16:10.819Z,12.90
2019-05-23T06:17:11.377Z,13.06
2019-05-23T06:18:11.811Z,13.01
2019-05-23T06:19:12.271Z,13.05
2019-05-23T06:20:12.693Z,13.06
2019-05-23T06:21:13.208Z,13.06
2019-05-23T06:22:13.650Z,13.03
2019-05-23T06:23:14.144Z,13.09
2019-05-23T06:24:14.562Z,13.09
2019-05-23T06:25:15.083Z,13.11
2019-05-23T06:26:15.541Z,13.16
2019-05-23T06:27:16.052Z,13.21
2019-05-23T06:28:16.498Z,13.28
2019-05-23T06:29:16.935Z,13.31
2019-05-23T06:30:17.364Z,13.42
2019-05-23T06:31:17.801Z,13.33
2019-05-23T06:32:18.319Z,13.42
2019-05-23T06:33:23.101Z,13.43
2019-05-23T06:34:25.193Z,13.47
2019-05-23T06:35:25.761Z,13.47
2019-05-23T06:36:26.230Z,13.49
2019-05-23T06:37:26.730Z,13.58
2019-05-23T06:38:27.237Z,13.58
2019-05-23T06:39:27.657Z,13.62
2019-05-23T06:40:28.084Z,13.75
2019-05-23T06:41:28.509Z,13.71
2019-05-23T06:42:29.958Z,13.65
2019-05-23T06:43:30.482Z,13.79
2019-05-23T06:44:30.911Z,13.76
2019-05-23T06:45:31.338Z,13.78
2019-05-23T06:46:31.812Z,13.76
2019-05-23T06:47:32.256Z,13.87
2019-05-23T06:48:32.693Z,13.95
2019-05-23T06:49:33.130Z,13.93
2019-05-23T06:50:33.595Z,13.95
2019-05-23T06:51:34.048Z,14.04
2019-05-23T06:52:34.502Z,14.03
2019-05-23T06:53:34.937Z,14.16
2019-05-23T06:54:35.371Z,14.22
2019-05-23T06:55:35.804Z,14.30
2019-05-23T06:56:36.275Z,14.41
2019-05-23T06:57:36.839Z,14.48
2019-05-23T06:58:37.280Z,14.49
2019-05-23T06:59:37.728Z,14.59
2019-05-23T07:00:38.173Z,14.61
2019-05-23T07:01:38.616Z,14.66
2019-05-23T07:02:39.080Z,14.68
2019-05-23T07:03:42.979Z,14.71
2019-05-23T07:04:43.965Z,14.79
2019-05-23T07:05:44.404Z,14.81
2019-05-23T07:06:45.854Z,14.81
2019-05-23T07:07:46.288Z,14.85
2019-05-23T07:08:46.738Z,14.90
2019-05-23T07:09:47.161Z,14.87
2019-05-23T07:10:47.591Z,14.94
2019-05-23T07:11:48.021Z,15.05
2019-05-23T07:12:48.508Z,15.04
2019-05-23T07:13:49.003Z,15.17
2019-05-23T07:14:49.498Z,15.08
2019-05-23T07:15:49.926Z,15.15
2019-05-23T07:16:50.537Z,15.19
2019-05-23T07:17:51.042Z,15.30
2019-05-23T07:18:51.677Z,15.23
2019-05-23T07:19:52.111Z,15.33
2019-05-23T07:20:52.539Z,15.39
2019-05-23T07:21:52.981Z,15.45
2019-05-23T07:22:53.435Z,15.51
2019-05-23T07:23:53.968Z,15.62
2019-05-23T07:24:58.394Z,15.63
2019-05-23T07:25:59.394Z,15.67
2019-05-23T07:26:59.916Z,15.78
2019-05-23T07:28:00.373Z,15.81
2019-05-23T07:29:00.816Z,15.80
2019-05-23T07:30:01.296Z,15.81
2019-05-23T07:31:01.814Z,15.87
2019-05-23T07:32:02.255Z,15.87
2019-05-23T07:33:03.003Z,15.88
2019-05-23T07:34:03.423Z,16.05
2019-05-23T07:35:03.879Z,16.08
2019-05-23T07:36:04.328Z,16.08
2019-05-23T07:37:04.798Z,16.17
2019-05-23T07:38:05.249Z,16.18
2019-05-23T07:39:05.734Z,16.28
2019-05-23T07:40:06.167Z,16.32
2019-05-23T07:41:06.673Z,16.39
2019-05-23T07:42:07.111Z,16.43
2019-05-23T07:43:07.645Z,16.44
2019-05-23T07:44:08.081Z,16.34
2019-05-23T07:45:08.549Z,16.54
2019-05-23T07:46:08.968Z,16.47
2019-05-23T07:47:09.410Z,16.51
2019-05-23T07:48:09.891Z,16.69
2019-05-23T07:49:10.412Z,16.62
2019-05-23T07:50:10.840Z,16.79
2019-05-23T07:51:11.422Z,16.79
2019-05-23T07:52:11.878Z,16.79
2019-05-23T07:53:12.418Z,16.83
2019-05-23T07:54:13.253Z,16.83
2019-05-23T07:55:14.038Z,16.98
2019-05-23T07:56:14.466Z,16.94
2019-05-23T07:58:23.502Z,17.04
2019-05-23T07:59:26.045Z,17.05
2019-05-23T08:00:26.624Z,17.07
2019-05-23T08:01:27.094Z,17.23
2019-05-23T08:02:27.605Z,17.24
2019-05-23T08:03:28.053Z,17.28
2019-05-23T08:04:28.538Z,17.31
2019-05-23T08:05:28.966Z,17.35
2019-05-23T08:06:29.479Z,17.35
2019-05-23T08:07:32.652Z,17.42
2019-05-23T08:08:33.618Z,17.46
2019-05-23T08:09:34.039Z,17.52
2019-05-23T08:10:34.784Z,17.50
2019-05-23T08:11:35.260Z,17.68
2019-05-23T08:12:35.776Z,17.71
2019-05-23T08:13:36.228Z,17.72
2019-05-23T08:14:36.702Z,17.73
2019-05-23T08:15:37.135Z,17.71
2019-05-23T08:16:37.600Z,17.75
2019-05-23T08:17:38.195Z,17.80
2019-05-23T08:18:38.911Z,17.80
2019-05-23T08:19:49.087Z,17.84
2019-05-23T08:20:45.741Z,17.87
2019-05-23T08:21:46.167Z,17.94
2019-05-23T08:22:46.599Z,17.97
2019-05-23T08:23:47.054Z,17.98
2019-05-23T08:24:51.131Z,18.02
2019-05-23T08:25:51.937Z,18.15
2019-05-23T08:26:52.476Z,18.19
2019-05-23T08:27:52.902Z,18.27
2019-05-23T08:29:23.710Z,18.18
2019-05-23T08:30:02.218Z,18.18
2019-05-23T08:31:03.079Z,18.16
2019-05-23T08:32:03.513Z,18.26
2019-05-23T08:33:03.969Z,18.23
2019-05-23T08:34:04.416Z,18.26
2019-05-23T08:35:04.891Z,18.41
2019-05-23T08:36:05.327Z,18.41
2019-05-23T08:37:05.829Z,18.42
2019-05-23T08:38:06.263Z,18.42
2019-05-23T08:39:06.799Z,18.43
2019-05-23T08:40:07.236Z,18.52
2019-05-23T08:41:07.708Z,18.63
2019-05-23T08:42:08.141Z,18.66
2019-05-23T08:43:08.654Z,18.73
2019-05-23T08:44:11.517Z,18.79
2019-05-23T08:45:12.398Z,18.74
2019-05-23T08:46:12.884Z,18.81
2019-05-23T08:47:13.381Z,18.74
2019-05-23T08:48:14.398Z,18.92
2019-05-23T08:49:14.981Z,18.89
2019-05-23T08:50:15.420Z,18.91
2019-05-23T08:51:15.861Z,18.91
2019-05-23T08:52:16.366Z,18.88
2019-05-23T08:53:16.900Z,18.89
2019-05-23T08:54:17.373Z,18.98
2019-05-23T08:55:17.829Z,19.05
2019-05-23T08:56:19.710Z,19.04
2019-05-23T08:57:20.406Z,18.96
2019-05-23T08:58:20.836Z,18.98
2019-05-23T08:59:21.401Z,18.88
2019-05-23T09:00:21.833Z,18.91
2019-05-23T09:01:22.378Z,18.96
2019-05-23T09:02:22.830Z,18.97
2019-05-23T09:03:23.364Z,18.91
2019-05-23T09:04:23.826Z,18.82
2019-05-23T09:05:24.350Z,18.79
2019-05-23T09:06:24.773Z,18.76
2019-05-23T09:07:46.256Z,18.81
2019-05-23T09:08:46.721Z,18.81
2019-05-23T09:09:48.248Z,18.79
2019-05-23T09:10:48.682Z,18.81
2019-05-23T09:13:06.430Z,18.73
2019-05-23T09:23:05.048Z,18.30
2019-05-23T09:24:27.535Z,18.30
2019-05-23T09:25:27.990Z,18.30
2019-05-23T09:26:57.342Z,18.28
2019-05-23T09:27:57.826Z,18.24
2019-05-23T09:29:06.882Z,18.26
2019-05-23T09:30:07.327Z,18.26
2019-05-23T09:55:43.981Z,18.49
2019-05-23T09:57:20.385Z,18.48
2019-05-23T09:58:20.844Z,18.41
2019-05-23T09:59:21.275Z,18.43
2019-05-23T10:00:21.723Z,18.48
2019-05-23T10:01:22.223Z,18.45
2019-05-23T10:02:22.691Z,18.46
2019-05-23T10:03:23.158Z,18.58
2019-05-23T10:04:23.592Z,18.68
2019-05-23T10:05:40.846Z,18.74
2019-05-23T10:06:30.456Z,18.79
2019-05-23T10:07:30.934Z,18.83
2019-05-23T10:08:31.372Z,18.92
2019-05-23T10:09:31.838Z,18.96
2019-05-23T10:10:32.299Z,18.88
2019-05-23T10:11:32.744Z,18.78
2019-05-23T10:12:33.185Z,18.78
2019-05-23T10:13:38.930Z,18.68
2019-05-23T10:14:40.048Z,18.71
2019-05-23T10:15:40.509Z,18.60
2019-05-23T10:16:40.943Z,18.76
2019-05-23T10:17:41.397Z,18.71
2019-05-23T10:18:41.839Z,18.85
2019-05-23T10:19:42.278Z,18.86
2019-05-23T10:20:42.788Z,18.92
2019-05-23T10:21:43.235Z,19.01
2019-05-23T10:22:43.680Z,19.05
2019-05-23T10:23:44.127Z,19.16
2019-05-23T10:24:44.589Z,19.09
2019-05-23T10:25:45.085Z,19.15
2019-05-23T10:26:45.540Z,19.04
2019-05-23T10:27:45.986Z,19.05
2019-05-23T10:28:46.459Z,19.00
2019-05-23T10:29:46.912Z,19.05
2019-05-23T10:30:47.391Z,18.96
2019-05-23T10:31:47.837Z,18.94
2019-05-23T10:32:48.273Z,18.92
2019-05-23T10:33:48.721Z,18.98
2019-05-23T10:34:49.155Z,18.92
2019-05-23T10:35:59.842Z,18.94
2019-05-23T10:36:56.033Z,19.01
2019-05-23T10:37:56.491Z,19.15
2019-05-23T10:38:56.946Z,19.26
2019-05-23T10:39:57.376Z,19.30
2019-05-23T10:40:57.821Z,19.34
2019-05-23T10:41:58.263Z,19.39
2019-05-23T10:42:58.745Z,19.42
2019-05-23T10:43:59.247Z,19.53
2019-05-23T10:44:59.680Z,19.55
2019-05-23T10:46:00.314Z,19.62
2019-05-23T10:47:00.744Z,19.59
2019-05-23T10:48:01.175Z,19.63
2019-05-23T10:49:01.624Z,19.64
2019-05-23T10:50:07.204Z,19.60
2019-05-23T10:51:08.504Z,19.62
2019-05-23T10:52:08.951Z,19.67
2019-05-23T10:53:09.408Z,19.63
2019-05-23T10:54:09.858Z,19.60
2019-05-23T10:55:10.305Z,19.53
2019-05-23T10:56:10.766Z,19.52
2019-05-23T10:57:11.201Z,19.60
2019-05-23T10:58:11.672Z,19.57
2019-05-23T10:59:12.110Z,19.52
2019-05-23T11:00:12.538Z,19.49
2019-05-23T11:01:12.990Z,19.63
2019-05-23T11:02:13.418Z,19.66
2019-05-23T11:03:13.891Z,19.71
2019-05-23T11:04:14.313Z,19.79
2019-05-23T11:05:14.731Z,19.89
2019-05-23T11:06:16.855Z,19.93
2019-05-23T11:07:17.476Z,19.96
2019-05-23T11:08:17.912Z,19.90
2019-05-23T11:09:18.337Z,19.90
2019-05-23T11:10:18.757Z,20.02
2019-05-23T11:11:19.228Z,19.92
2019-05-23T11:12:19.685Z,20.10
2019-05-23T11:13:20.121Z,20.18
2019-05-23T11:14:20.570Z,20.30
2019-05-23T11:15:21.030Z,20.46
2019-05-23T11:16:21.511Z,20.46
2019-05-23T11:17:21.974Z,20.63
2019-05-23T11:18:22.398Z,20.63
2019-05-23T11:19:22.829Z,20.49
2019-05-23T11:20:23.274Z,20.52
2019-05-23T11:21:23.726Z,20.48
2019-05-23T11:22:24.243Z,20.40
2019-05-23T11:23:24.697Z,20.40
2019-05-23T11:24:25.128Z,20.36
2019-05-23T11:25:25.569Z,20.46
2019-05-23T11:26:26.009Z,20.29
2019-05-23T11:27:26.428Z,20.39
2019-05-23T11:28:26.858Z,20.42
2019-05-23T11:29:27.699Z,20.48
2019-05-23T11:30:28.173Z,20.44
2019-05-23T11:31:28.683Z,20.49
2019-05-23T11:32:29.130Z,20.44
2019-05-23T11:33:29.562Z,20.55
2019-05-23T11:34:29.992Z,20.56
2019-05-23T11:35:30.421Z,20.52
2019-05-23T11:36:36.252Z,20.53
2019-05-23T11:37:37.267Z,20.63
2019-05-23T11:38:37.690Z,20.68
2019-05-23T11:39:42.183Z,20.71
2019-05-23T11:40:44.521Z,20.78
2019-05-23T11:41:44.988Z,20.77
2019-05-23T11:42:45.464Z,20.78
2019-05-23T11:43:45.891Z,20.85
2019-05-23T11:44:46.312Z,20.74
2019-05-23T11:45:46.740Z,20.86
2019-05-23T11:46:47.202Z,20.92
2019-05-23T11:47:47.625Z,20.95
2019-05-23T11:48:48.059Z,21.00
2019-05-23T11:49:48.508Z,20.92
2019-05-23T11:50:48.976Z,20.92
2019-05-23T11:51:49.457Z,20.89
2019-05-23T11:52:49.896Z,21.15
2019-05-23T11:54:06.055Z,21.23
2019-05-23T11:54:56.733Z,21.37
2019-05-23T11:55:57.332Z,21.54
2019-05-23T11:56:57.865Z,21.60
2019-05-23T11:57:58.308Z,21.62
2019-05-23T11:59:01.583Z,21.68
2019-05-23T12:00:02.413Z,21.72
2019-05-23T12:01:03.020Z,21.72
2019-05-23T12:02:03.496Z,21.66
2019-05-23T12:03:03.924Z,21.78
2019-05-23T12:04:04.354Z,21.97
2019-05-23T12:05:04.778Z,21.97
2019-05-23T12:06:06.085Z,21.97
2019-05-23T12:07:06.770Z,22.06
2019-05-23T12:08:07.191Z,22.18
2019-05-23T12:09:07.619Z,22.56
2019-05-23T12:10:08.049Z,22.92
2019-05-23T12:11:08.481Z,23.18
2019-05-23T12:12:08.928Z,23.54
2019-05-23T12:13:09.354Z,23.77
2019-05-23T12:14:09.782Z,24.01
2019-05-23T12:15:10.202Z,24.19
2019-05-23T12:16:10.627Z,24.47
2019-05-23T12:17:11.081Z,24.71
2019-05-23T12:18:11.510Z,24.99
2019-05-23T12:19:12.013Z,25.19
2019-05-23T12:20:12.469Z,25.43
2019-05-23T12:21:12.911Z,25.73
2019-05-23T12:22:13.352Z,25.89
2019-05-23T12:23:13.784Z,25.95
2019-05-23T12:24:14.209Z,26.11
2019-05-23T12:25:23.423Z,26.13
2019-05-23T12:26:21.039Z,26.26
2019-05-23T12:27:21.494Z,26.36
2019-05-23T12:28:21.936Z,26.31
2019-05-23T12:29:22.380Z,26.13
2019-05-23T12:30:22.948Z,26.01
2019-05-23T12:31:23.377Z,25.92
2019-05-23T12:32:23.825Z,25.88
2019-05-23T12:33:24.253Z,25.86
2019-05-23T12:34:24.704Z,25.85
2019-05-23T12:35:25.143Z,25.85
2019-05-23T12:36:25.589Z,26.15
2019-05-23T12:37:26.104Z,26.37
2019-05-23T12:38:26.562Z,26.41
2019-05-23T12:39:27.108Z,26.66
2019-05-23T12:40:27.613Z,27.03
2019-05-23T12:41:28.036Z,27.15
2019-05-23T12:42:28.556Z,27.44
2019-05-23T12:43:29.010Z,27.60
2019-05-23T12:44:29.474Z,27.68
2019-05-23T12:45:29.902Z,27.86
2019-05-23T12:46:30.333Z,27.86
2019-05-23T12:47:30.781Z,27.98
2019-05-23T12:48:31.313Z,28.06
2019-05-23T12:49:31.739Z,28.04
2019-05-23T12:50:32.271Z,28.00
2019-05-23T12:51:32.764Z,28.09
2019-05-23T12:52:33.323Z,27.95
2019-05-23T12:53:33.748Z,27.76
2019-05-23T12:54:34.228Z,27.85
2019-05-23T12:55:34.669Z,27.86
2019-05-23T12:56:35.159Z,28.04
2019-05-23T12:57:35.606Z,28.18
2019-05-23T12:58:36.038Z,28.33
2019-05-23T12:59:36.468Z,28.40
2019-05-23T13:00:46.046Z,28.52
2019-05-23T13:01:46.482Z,28.34
2019-05-23T13:02:46.934Z,28.45
2019-05-23T13:03:47.398Z,28.57
2019-05-23T13:04:47.840Z,28.53
2019-05-23T13:05:48.359Z,28.49
2019-05-23T13:06:49.202Z,28.31
2019-05-23T13:07:49.707Z,28.22
2019-05-23T13:08:50.137Z,28.00
2019-05-23T13:09:50.563Z,27.85
2019-05-23T13:10:50.996Z,27.68
2019-05-23T13:11:51.453Z,27.63
2019-05-23T13:12:51.906Z,27.60
2019-05-23T13:13:52.338Z,27.57
2019-05-23T13:14:57.671Z,27.55
2019-05-23T13:15:59.185Z,27.44
2019-05-23T13:17:01.017Z,27.26
2019-05-23T13:18:02.161Z,27.20
2019-05-23T13:19:02.737Z,27.20
2019-05-23T13:20:03.223Z,27.38
2019-05-23T13:21:31.469Z,27.44
2019-05-23T13:22:31.920Z,27.58
2019-05-23T13:25:52.480Z,27.79
2019-05-23T13:26:53.026Z,27.85
2019-05-23T13:27:53.466Z,27.98
2019-05-23T13:28:53.958Z,27.88
2019-05-23T13:29:54.400Z,27.91
2019-05-23T13:31:02.368Z,27.90
2019-05-23T13:32:02.829Z,27.91
2019-05-23T13:35:38.484Z,28.01
2019-05-23T13:42:06.909Z,28.55
2019-05-23T13:43:09.493Z,28.60
2019-05-23T13:44:09.987Z,28.80
2019-05-23T13:45:26.595Z,28.90
2019-05-23T13:46:27.026Z,29.27
2019-05-23T13:47:29.520Z,29.35
2019-05-23T13:48:29.961Z,29.31
2019-05-23T13:49:30.397Z,29.55
2019-05-23T13:50:30.827Z,29.67
2019-05-23T13:51:31.272Z,29.67
2019-05-23T13:52:31.695Z,29.68
2019-05-23T13:53:32.133Z,29.71
2019-05-23T13:54:36.233Z,29.55
2019-05-23T13:55:37.447Z,29.74
2019-05-23T13:56:37.981Z,29.80
2019-05-23T13:57:38.681Z,29.99
2019-05-23T13:58:39.253Z,29.99
2019-05-23T13:59:39.701Z,29.64
2019-05-23T14:00:40.257Z,29.32
2019-05-23T14:01:40.703Z,29.15
2019-05-23T14:02:42.242Z,29.21
2019-05-23T14:03:42.695Z,29.43
2019-05-23T14:04:51.072Z,29.62
2019-05-23T14:05:51.514Z,29.67
2019-05-23T14:06:51.995Z,29.73
2019-05-23T14:08:08.742Z,29.80
2019-05-23T14:08:58.863Z,29.95
2019-05-23T14:10:00.387Z,29.57
2019-05-23T14:11:00.828Z,29.43
2019-05-23T14:12:20.493Z,29.71
2019-05-23T14:27:55.600Z,28.40
2019-05-23T14:28:56.059Z,28.53
2019-05-23T14:29:56.602Z,28.78
2019-05-23T14:30:57.074Z,28.92
2019-05-23T14:33:13.512Z,29.18
2019-05-23T14:34:29.128Z,29.03
2019-05-23T14:35:29.640Z,28.96
2019-05-23T14:36:37.315Z,28.97
2019-05-23T14:37:37.906Z,29.12
2019-05-23T14:38:38.439Z,29.07
2019-05-23T14:39:38.890Z,28.86
2019-05-23T14:40:39.370Z,28.65
2019-05-23T14:41:45.089Z,28.52
2019-05-23T14:42:46.245Z,28.27
2019-05-23T14:43:46.699Z,28.08
2019-05-23T14:44:54.042Z,27.83
2019-05-23T14:45:54.582Z,27.57
2019-05-23T14:46:55.079Z,27.41
2019-05-23T14:47:55.505Z,27.11